sensor_id;sensor_type;location;lat;lon;timestamp;P1;durP1;ratioP1;P2;durP2;ratioP2
73132;SDS011;61320;52.008;4.530;2023-07-31T00:00:14;12.95;;;10.58;;
73132;SDS011;61320;52.008;4.530;2023-07-31T00:02:39;14.46;;;11.32;;
73132;SDS011;61320;52.008;4.530;2023-07-31T00:05:05;13.96;;;10.99;;
73132;SDS011;61320;52.008;4.530;2023-07-31T00:07:31;12.58;;;10.31;;
73132;SDS011;61320;52.008;4.530;2023-07-31T00:09:57;13.33;;;10.69;;
73132;SDS011;61320;52.008;4.530;2023-07-31T00:12:23;15.65;;;11.96;;
73132;SDS011;61320;52.008;4.530;2023-07-31T00:14:49;15.32;;;11.93;;
73132;SDS011;61320;52.008;4.530;2023-07-31T00:17:14;14.15;;;11.29;;
73132;SDS011;61320;52.008;4.530;2023-07-31T00:19:42;13.90;;;10.99;;
73132;SDS011;61320;52.008;4.530;2023-07-31T00:22:07;14.06;;;11.20;;
73132;SDS011;61320;52.008;4.530;2023-07-31T00:24:33;13.65;;;10.92;;
73132;SDS011;61320;52.008;4.530;2023-07-31T00:26:58;12.88;;;10.69;;
73132;SDS011;61320;52.008;4.530;2023-07-31T00:29:24;13.92;;;11.24;;
73132;SDS011;61320;52.008;4.530;2023-07-31T00:31:49;14.48;;;11.51;;
73132;SDS011;61320;52.008;4.530;2023-07-31T00:34:15;14.94;;;11.80;;
73132;SDS011;61320;52.008;4.530;2023-07-31T00:36:40;14.57;;;11.60;;
73132;SDS011;61320;52.008;4.530;2023-07-31T00:39:06;13.65;;;11.21;;
73132;SDS011;61320;52.008;4.530;2023-07-31T00:41:31;13.92;;;11.25;;
73132;SDS011;61320;52.008;4.530;2023-07-31T00:43:57;13.73;;;11.20;;
73132;SDS011;61320;52.008;4.530;2023-07-31T00:46:22;14.18;;;11.61;;
73132;SDS011;61320;52.008;4.530;2023-07-31T00:48:48;14.67;;;11.99;;
73132;SDS011;61320;52.008;4.530;2023-07-31T00:51:14;15.21;;;12.51;;
73132;SDS011;61320;52.008;4.530;2023-07-31T00:53:41;15.50;;;12.46;;
73132;SDS011;61320;52.008;4.530;2023-07-31T00:56:07;15.00;;;12.33;;
73132;SDS011;61320;52.008;4.530;2023-07-31T00:58:33;14.51;;;11.76;;
73132;SDS011;61320;52.008;4.530;2023-07-31T01:00:59;13.24;;;10.92;;
73132;SDS011;61320;52.008;4.530;2023-07-31T01:03:24;11.71;;;9.78;;
73132;SDS011;61320;52.008;4.530;2023-07-31T01:08:20;10.50;;;8.99;;
73132;SDS011;61320;52.008;4.530;2023-07-31T01:10:58;7.78;;;6.85;;
73132;SDS011;61320;52.008;4.530;2023-07-31T01:13:30;6.87;;;6.29;;
73132;SDS011;61320;52.008;4.530;2023-07-31T01:15:56;6.79;;;6.20;;
73132;SDS011;61320;52.008;4.530;2023-07-31T01:18:21;7.43;;;6.76;;
73132;SDS011;61320;52.008;4.530;2023-07-31T01:20:48;8.19;;;7.34;;
73132;SDS011;61320;52.008;4.530;2023-07-31T01:26:16;9.76;;;8.47;;
73132;SDS011;61320;52.008;4.530;2023-07-31T01:28:56;11.77;;;9.86;;
73132;SDS011;61320;52.008;4.530;2023-07-31T01:31:30;12.90;;;10.56;;
73132;SDS011;61320;52.008;4.530;2023-07-31T01:33:59;12.77;;;10.82;;
73132;SDS011;61320;52.008;4.530;2023-07-31T01:36:25;12.82;;;10.72;;
73132;SDS011;61320;52.008;4.530;2023-07-31T01:38:51;13.91;;;11.53;;
73132;SDS011;61320;52.008;4.530;2023-07-31T01:41:17;14.28;;;11.78;;
73132;SDS011;61320;52.008;4.530;2023-07-31T01:43:42;13.73;;;10.93;;
73132;SDS011;61320;52.008;4.530;2023-07-31T01:46:07;14.20;;;11.44;;
73132;SDS011;61320;52.008;4.530;2023-07-31T01:48:33;12.79;;;10.55;;
73132;SDS011;61320;52.008;4.530;2023-07-31T01:51:01;12.80;;;10.37;;
73132;SDS011;61320;52.008;4.530;2023-07-31T01:53:27;13.24;;;10.62;;
73132;SDS011;61320;52.008;4.530;2023-07-31T01:55:52;12.78;;;10.36;;
73132;SDS011;61320;52.008;4.530;2023-07-31T01:58:17;12.74;;;10.33;;
73132;SDS011;61320;52.008;4.530;2023-07-31T02:00:43;12.57;;;10.46;;
73132;SDS011;61320;52.008;4.530;2023-07-31T02:03:08;11.89;;;9.91;;
73132;SDS011;61320;52.008;4.530;2023-07-31T02:05:34;11.97;;;10.10;;
73132;SDS011;61320;52.008;4.530;2023-07-31T02:07:59;12.98;;;10.98;;
73132;SDS011;61320;52.008;4.530;2023-07-31T02:10:25;12.85;;;11.02;;
73132;SDS011;61320;52.008;4.530;2023-07-31T02:12:50;13.49;;;11.35;;
73132;SDS011;61320;52.008;4.530;2023-07-31T02:15:16;14.08;;;11.75;;
73132;SDS011;61320;52.008;4.530;2023-07-31T02:17:41;14.58;;;12.04;;
73132;SDS011;61320;52.008;4.530;2023-07-31T02:20:07;14.79;;;12.22;;
73132;SDS011;61320;52.008;4.530;2023-07-31T02:22:33;14.98;;;12.17;;
73132;SDS011;61320;52.008;4.530;2023-07-31T02:24:58;14.39;;;11.80;;
73132;SDS011;61320;52.008;4.530;2023-07-31T02:27:24;14.24;;;11.86;;
73132;SDS011;61320;52.008;4.530;2023-07-31T02:29:52;13.04;;;11.06;;
73132;SDS011;61320;52.008;4.530;2023-07-31T02:32:17;13.46;;;11.41;;
73132;SDS011;61320;52.008;4.530;2023-07-31T02:34:43;12.98;;;11.02;;
73132;SDS011;61320;52.008;4.530;2023-07-31T02:37:08;12.54;;;10.75;;
73132;SDS011;61320;52.008;4.530;2023-07-31T02:39:34;13.00;;;11.00;;
73132;SDS011;61320;52.008;4.530;2023-07-31T02:41:59;13.46;;;11.36;;
73132;SDS011;61320;52.008;4.530;2023-07-31T02:44:25;12.53;;;10.71;;
73132;SDS011;61320;52.008;4.530;2023-07-31T02:46:51;12.23;;;10.68;;
73132;SDS011;61320;52.008;4.530;2023-07-31T02:49:16;11.46;;;10.34;;
73132;SDS011;61320;52.008;4.530;2023-07-31T02:51:42;10.95;;;9.96;;
73132;SDS011;61320;52.008;4.530;2023-07-31T02:54:07;10.75;;;9.85;;
73132;SDS011;61320;52.008;4.530;2023-07-31T02:56:33;10.94;;;9.87;;
73132;SDS011;61320;52.008;4.530;2023-07-31T02:58:58;10.92;;;9.64;;
73132;SDS011;61320;52.008;4.530;2023-07-31T03:01:23;10.94;;;9.69;;
73132;SDS011;61320;52.008;4.530;2023-07-31T03:03:49;10.43;;;9.23;;
73132;SDS011;61320;52.008;4.530;2023-07-31T03:06:14;10.84;;;9.47;;
73132;SDS011;61320;52.008;4.530;2023-07-31T03:08:40;10.90;;;9.54;;
73132;SDS011;61320;52.008;4.530;2023-07-31T03:11:05;11.42;;;9.75;;
73132;SDS011;61320;52.008;4.530;2023-07-31T03:13:31;12.76;;;10.53;;
73132;SDS011;61320;52.008;4.530;2023-07-31T03:15:56;11.35;;;9.63;;
73132;SDS011;61320;52.008;4.530;2023-07-31T03:18:22;10.99;;;9.61;;
73132;SDS011;61320;52.008;4.530;2023-07-31T03:20:47;11.76;;;10.09;;
73132;SDS011;61320;52.008;4.530;2023-07-31T03:23:12;11.45;;;9.74;;
73132;SDS011;61320;52.008;4.530;2023-07-31T03:25:38;11.21;;;9.49;;
73132;SDS011;61320;52.008;4.530;2023-07-31T03:28:04;10.93;;;9.41;;
73132;SDS011;61320;52.008;4.530;2023-07-31T03:30:30;11.02;;;9.51;;
73132;SDS011;61320;52.008;4.530;2023-07-31T03:32:55;11.71;;;9.77;;
73132;SDS011;61320;52.008;4.530;2023-07-31T03:35:21;10.31;;;8.94;;
73132;SDS011;61320;52.008;4.530;2023-07-31T03:37:46;10.95;;;9.40;;
73132;SDS011;61320;52.008;4.530;2023-07-31T03:40:12;11.03;;;9.52;;
73132;SDS011;61320;52.008;4.530;2023-07-31T03:42:37;10.24;;;8.93;;
73132;SDS011;61320;52.008;4.530;2023-07-31T03:45:03;9.81;;;8.68;;
73132;SDS011;61320;52.008;4.530;2023-07-31T03:47:29;9.51;;;8.53;;
73132;SDS011;61320;52.008;4.530;2023-07-31T03:49:54;8.94;;;8.09;;
73132;SDS011;61320;52.008;4.530;2023-07-31T03:52:19;8.97;;;8.00;;
73132;SDS011;61320;52.008;4.530;2023-07-31T03:54:45;9.86;;;8.68;;
73132;SDS011;61320;52.008;4.530;2023-07-31T03:57:11;8.87;;;7.90;;
73132;SDS011;61320;52.008;4.530;2023-07-31T03:59:36;8.05;;;7.35;;
73132;SDS011;61320;52.008;4.530;2023-07-31T04:02:04;8.22;;;7.53;;
73132;SDS011;61320;52.008;4.530;2023-07-31T04:04:30;7.20;;;6.65;;
73132;SDS011;61320;52.008;4.530;2023-07-31T04:06:55;6.65;;;6.15;;
73132;SDS011;61320;52.008;4.530;2023-07-31T04:09:21;6.21;;;5.73;;
73132;SDS011;61320;52.008;4.530;2023-07-31T04:11:46;5.03;;;4.74;;
73132;SDS011;61320;52.008;4.530;2023-07-31T04:14:12;4.99;;;4.80;;
73132;SDS011;61320;52.008;4.530;2023-07-31T04:16:37;5.12;;;4.92;;
73132;SDS011;61320;52.008;4.530;2023-07-31T04:19:03;5.36;;;5.20;;
73132;SDS011;61320;52.008;4.530;2023-07-31T04:21:29;5.16;;;4.94;;
73132;SDS011;61320;52.008;4.530;2023-07-31T04:23:54;4.18;;;3.96;;
73132;SDS011;61320;52.008;4.530;2023-07-31T04:26:21;5.14;;;4.93;;
73132;SDS011;61320;52.008;4.530;2023-07-31T04:28:47;5.55;;;5.36;;
73132;SDS011;61320;52.008;4.530;2023-07-31T04:31:13;5.19;;;5.05;;
73132;SDS011;61320;52.008;4.530;2023-07-31T04:33:38;4.48;;;4.41;;
73132;SDS011;61320;52.008;4.530;2023-07-31T04:36:04;4.08;;;4.08;;
73132;SDS011;61320;52.008;4.530;2023-07-31T04:38:30;3.88;;;3.87;;
73132;SDS011;61320;52.008;4.530;2023-07-31T04:40:56;3.90;;;3.88;;
73132;SDS011;61320;52.008;4.530;2023-07-31T04:43:21;3.88;;;3.86;;
73132;SDS011;61320;52.008;4.530;2023-07-31T04:45:47;3.70;;;3.70;;
73132;SDS011;61320;52.008;4.530;2023-07-31T04:48:13;4.08;;;4.08;;
73132;SDS011;61320;52.008;4.530;2023-07-31T04:50:39;4.12;;;4.12;;
73132;SDS011;61320;52.008;4.530;2023-07-31T04:53:04;4.11;;;4.10;;
73132;SDS011;61320;52.008;4.530;2023-07-31T04:55:30;4.52;;;4.49;;
73132;SDS011;61320;52.008;4.530;2023-07-31T04:57:55;4.68;;;4.65;;
73132;SDS011;61320;52.008;4.530;2023-07-31T05:00:20;4.57;;;4.55;;
73132;SDS011;61320;52.008;4.530;2023-07-31T05:02:46;4.53;;;4.52;;
73132;SDS011;61320;52.008;4.530;2023-07-31T05:05:11;4.78;;;4.78;;
73132;SDS011;61320;52.008;4.530;2023-07-31T05:07:36;4.97;;;4.97;;
73132;SDS011;61320;52.008;4.530;2023-07-31T05:10:02;4.67;;;4.67;;
73132;SDS011;61320;52.008;4.530;2023-07-31T05:12:27;4.68;;;4.67;;
73132;SDS011;61320;52.008;4.530;2023-07-31T05:14:53;4.69;;;4.68;;
73132;SDS011;61320;52.008;4.530;2023-07-31T05:17:18;4.10;;;4.09;;
73132;SDS011;61320;52.008;4.530;2023-07-31T05:19:43;4.40;;;4.37;;
73132;SDS011;61320;52.008;4.530;2023-07-31T05:22:09;4.31;;;4.31;;
73132;SDS011;61320;52.008;4.530;2023-07-31T05:24:34;3.89;;;3.89;;
73132;SDS011;61320;52.008;4.530;2023-07-31T05:26:59;3.99;;;3.99;;
73132;SDS011;61320;52.008;4.530;2023-07-31T05:29:25;3.73;;;3.73;;
73132;SDS011;61320;52.008;4.530;2023-07-31T05:31:50;3.94;;;3.94;;
73132;SDS011;61320;52.008;4.530;2023-07-31T05:34:15;3.49;;;3.49;;
73132;SDS011;61320;52.008;4.530;2023-07-31T05:36:41;2.93;;;2.93;;
73132;SDS011;61320;52.008;4.530;2023-07-31T05:39:06;3.19;;;3.19;;
73132;SDS011;61320;52.008;4.530;2023-07-31T05:41:33;3.35;;;3.35;;
73132;SDS011;61320;52.008;4.530;2023-07-31T05:43:59;3.10;;;3.10;;
73132;SDS011;61320;52.008;4.530;2023-07-31T05:46:25;3.20;;;3.19;;
73132;SDS011;61320;52.008;4.530;2023-07-31T05:48:50;2.96;;;2.95;;
73132;SDS011;61320;52.008;4.530;2023-07-31T05:51:15;3.20;;;3.20;;
73132;SDS011;61320;52.008;4.530;2023-07-31T05:53:41;2.92;;;2.92;;
73132;SDS011;61320;52.008;4.530;2023-07-31T05:56:06;2.71;;;2.71;;
73132;SDS011;61320;52.008;4.530;2023-07-31T05:58:32;2.97;;;2.96;;
73132;SDS011;61320;52.008;4.530;2023-07-31T06:00:57;2.68;;;2.67;;
73132;SDS011;61320;52.008;4.530;2023-07-31T06:03:22;2.95;;;2.95;;
73132;SDS011;61320;52.008;4.530;2023-07-31T06:05:48;2.80;;;2.80;;
73132;SDS011;61320;52.008;4.530;2023-07-31T06:08:13;2.59;;;2.59;;
73132;SDS011;61320;52.008;4.530;2023-07-31T06:10:39;2.62;;;2.62;;
73132;SDS011;61320;52.008;4.530;2023-07-31T06:13:04;2.65;;;2.65;;
73132;SDS011;61320;52.008;4.530;2023-07-31T06:15:29;2.62;;;2.62;;
73132;SDS011;61320;52.008;4.530;2023-07-31T06:17:55;2.36;;;2.36;;
73132;SDS011;61320;52.008;4.530;2023-07-31T06:20:20;2.38;;;2.38;;
73132;SDS011;61320;52.008;4.530;2023-07-31T06:22:46;2.39;;;2.39;;
73132;SDS011;61320;52.008;4.530;2023-07-31T06:25:11;2.56;;;2.54;;
73132;SDS011;61320;52.008;4.530;2023-07-31T06:27:37;2.22;;;2.21;;
73132;SDS011;61320;52.008;4.530;2023-07-31T06:30:02;2.16;;;2.15;;
73132;SDS011;61320;52.008;4.530;2023-07-31T06:32:28;2.37;;;2.37;;
73132;SDS011;61320;52.008;4.530;2023-07-31T06:34:53;1.82;;;1.82;;
73132;SDS011;61320;52.008;4.530;2023-07-31T06:37:19;1.72;;;1.72;;
73132;SDS011;61320;52.008;4.530;2023-07-31T06:39:44;1.81;;;1.81;;
73132;SDS011;61320;52.008;4.530;2023-07-31T06:42:10;1.67;;;1.67;;
73132;SDS011;61320;52.008;4.530;2023-07-31T06:44:35;1.60;;;1.59;;
73132;SDS011;61320;52.008;4.530;2023-07-31T06:47:01;1.48;;;1.48;;
73132;SDS011;61320;52.008;4.530;2023-07-31T06:49:26;1.33;;;1.33;;
73132;SDS011;61320;52.008;4.530;2023-07-31T06:51:52;1.55;;;1.55;;
73132;SDS011;61320;52.008;4.530;2023-07-31T06:54:17;1.51;;;1.50;;
73132;SDS011;61320;52.008;4.530;2023-07-31T06:56:42;1.52;;;1.52;;
73132;SDS011;61320;52.008;4.530;2023-07-31T06:59:08;1.34;;;1.34;;
73132;SDS011;61320;52.008;4.530;2023-07-31T07:01:33;1.32;;;1.32;;
73132;SDS011;61320;52.008;4.530;2023-07-31T07:03:59;1.46;;;1.46;;
73132;SDS011;61320;52.008;4.530;2023-07-31T07:06:24;1.28;;;1.28;;
73132;SDS011;61320;52.008;4.530;2023-07-31T07:08:52;1.33;;;1.33;;
73132;SDS011;61320;52.008;4.530;2023-07-31T07:11:20;1.33;;;1.33;;
73132;SDS011;61320;52.008;4.530;2023-07-31T07:13:45;1.36;;;1.36;;
73132;SDS011;61320;52.008;4.530;2023-07-31T07:16:11;1.32;;;1.32;;
73132;SDS011;61320;52.008;4.530;2023-07-31T07:18:36;1.17;;;1.17;;
73132;SDS011;61320;52.008;4.530;2023-07-31T07:21:03;1.14;;;1.14;;
73132;SDS011;61320;52.008;4.530;2023-07-31T07:23:28;1.17;;;1.17;;
73132;SDS011;61320;52.008;4.530;2023-07-31T07:25:54;1.11;;;1.11;;
73132;SDS011;61320;52.008;4.530;2023-07-31T07:28:19;1.12;;;1.12;;
73132;SDS011;61320;52.008;4.530;2023-07-31T07:30:45;1.22;;;1.22;;
73132;SDS011;61320;52.008;4.530;2023-07-31T07:33:15;1.18;;;1.18;;
73132;SDS011;61320;52.008;4.530;2023-07-31T07:35:41;1.33;;;1.33;;
73132;SDS011;61320;52.008;4.530;2023-07-31T07:38:06;1.18;;;1.18;;
73132;SDS011;61320;52.008;4.530;2023-07-31T07:40:31;1.25;;;1.25;;
73132;SDS011;61320;52.008;4.530;2023-07-31T07:42:57;1.12;;;1.12;;
73132;SDS011;61320;52.008;4.530;2023-07-31T07:45:22;1.10;;;1.10;;
73132;SDS011;61320;52.008;4.530;2023-07-31T07:47:48;0.98;;;0.98;;
73132;SDS011;61320;52.008;4.530;2023-07-31T07:50:13;1.07;;;1.07;;
73132;SDS011;61320;52.008;4.530;2023-07-31T07:52:39;1.13;;;1.13;;
73132;SDS011;61320;52.008;4.530;2023-07-31T07:55:04;0.96;;;0.96;;
73132;SDS011;61320;52.008;4.530;2023-07-31T07:57:30;0.80;;;0.80;;
73132;SDS011;61320;52.008;4.530;2023-07-31T07:59:55;0.81;;;0.81;;
73132;SDS011;61320;52.008;4.530;2023-07-31T08:02:21;0.78;;;0.78;;
73132;SDS011;61320;52.008;4.530;2023-07-31T08:04:47;0.72;;;0.72;;
73132;SDS011;61320;52.008;4.530;2023-07-31T08:07:13;0.74;;;0.74;;
73132;SDS011;61320;52.008;4.530;2023-07-31T08:09:39;0.80;;;0.80;;
73132;SDS011;61320;52.008;4.530;2023-07-31T08:12:06;0.74;;;0.74;;
73132;SDS011;61320;52.008;4.530;2023-07-31T08:14:32;0.75;;;0.75;;
73132;SDS011;61320;52.008;4.530;2023-07-31T08:16:57;0.67;;;0.67;;
73132;SDS011;61320;52.008;4.530;2023-07-31T08:19:23;0.88;;;0.88;;
73132;SDS011;61320;52.008;4.530;2023-07-31T08:21:48;0.77;;;0.77;;
73132;SDS011;61320;52.008;4.530;2023-07-31T08:24:14;0.91;;;0.91;;
73132;SDS011;61320;52.008;4.530;2023-07-31T08:26:39;0.88;;;0.88;;
73132;SDS011;61320;52.008;4.530;2023-07-31T08:29:05;1.04;;;1.04;;
73132;SDS011;61320;52.008;4.530;2023-07-31T08:31:31;0.95;;;0.95;;
73132;SDS011;61320;52.008;4.530;2023-07-31T08:33:56;0.82;;;0.82;;
73132;SDS011;61320;52.008;4.530;2023-07-31T08:36:22;0.92;;;0.92;;
73132;SDS011;61320;52.008;4.530;2023-07-31T08:38:47;0.91;;;0.91;;
73132;SDS011;61320;52.008;4.530;2023-07-31T08:41:13;0.92;;;0.92;;
73132;SDS011;61320;52.008;4.530;2023-07-31T08:43:39;1.00;;;1.00;;
73132;SDS011;61320;52.008;4.530;2023-07-31T08:46:05;1.01;;;1.01;;
73132;SDS011;61320;52.008;4.530;2023-07-31T08:48:31;0.84;;;0.84;;
73132;SDS011;61320;52.008;4.530;2023-07-31T08:50:58;0.97;;;0.97;;
73132;SDS011;61320;52.008;4.530;2023-07-31T08:53:23;0.98;;;0.98;;
73132;SDS011;61320;52.008;4.530;2023-07-31T08:55:49;1.27;;;1.27;;
73132;SDS011;61320;52.008;4.530;2023-07-31T08:58:17;1.46;;;1.46;;
73132;SDS011;61320;52.008;4.530;2023-07-31T09:00:45;1.73;;;1.73;;
73132;SDS011;61320;52.008;4.530;2023-07-31T09:03:13;1.84;;;1.83;;
73132;SDS011;61320;52.008;4.530;2023-07-31T09:05:42;2.03;;;1.95;;
73132;SDS011;61320;52.008;4.530;2023-07-31T09:08:10;2.13;;;1.99;;
73132;SDS011;61320;52.008;4.530;2023-07-31T09:10:43;2.67;;;2.49;;
73132;SDS011;61320;52.008;4.530;2023-07-31T09:13:15;2.77;;;2.52;;
73132;SDS011;61320;52.008;4.530;2023-07-31T09:15:43;2.73;;;2.40;;
73132;SDS011;61320;52.008;4.530;2023-07-31T09:18:10;3.32;;;2.94;;
73132;SDS011;61320;52.008;4.530;2023-07-31T09:20:36;3.10;;;2.84;;
73132;SDS011;61320;52.008;4.530;2023-07-31T09:23:10;2.82;;;2.60;;
73132;SDS011;61320;52.008;4.530;2023-07-31T09:25:38;2.95;;;2.69;;
73132;SDS011;61320;52.008;4.530;2023-07-31T09:28:06;2.54;;;2.33;;
73132;SDS011;61320;52.008;4.530;2023-07-31T09:30:47;2.73;;;2.56;;
73132;SDS011;61320;52.008;4.530;2023-07-31T09:33:17;2.38;;;2.27;;
73132;SDS011;61320;52.008;4.530;2023-07-31T09:35:43;2.23;;;2.18;;
73132;SDS011;61320;52.008;4.530;2023-07-31T09:38:12;2.15;;;2.15;;
73132;SDS011;61320;52.008;4.530;2023-07-31T09:40:40;1.86;;;1.86;;
73132;SDS011;61320;52.008;4.530;2023-07-31T09:43:07;1.94;;;1.94;;
73132;SDS011;61320;52.008;4.530;2023-07-31T09:45:41;1.91;;;1.91;;
73132;SDS011;61320;52.008;4.530;2023-07-31T09:48:11;1.73;;;1.73;;
73132;SDS011;61320;52.008;4.530;2023-07-31T09:50:38;1.86;;;1.86;;
73132;SDS011;61320;52.008;4.530;2023-07-31T09:53:07;1.59;;;1.59;;
73132;SDS011;61320;52.008;4.530;2023-07-31T09:55:34;1.67;;;1.67;;
73132;SDS011;61320;52.008;4.530;2023-07-31T09:58:03;1.97;;;1.96;;
73132;SDS011;61320;52.008;4.530;2023-07-31T10:00:29;2.05;;;1.98;;
73132;SDS011;61320;52.008;4.530;2023-07-31T10:02:57;2.23;;;2.14;;
73132;SDS011;61320;52.008;4.530;2023-07-31T10:05:26;2.28;;;2.16;;
73132;SDS011;61320;52.008;4.530;2023-07-31T10:08:00;2.15;;;2.02;;
73132;SDS011;61320;52.008;4.530;2023-07-31T10:10:25;2.07;;;1.98;;
73132;SDS011;61320;52.008;4.530;2023-07-31T10:12:52;2.07;;;2.00;;
73132;SDS011;61320;52.008;4.530;2023-07-31T10:15:19;2.28;;;2.16;;
73132;SDS011;61320;52.008;4.530;2023-07-31T10:17:48;2.36;;;2.23;;
73132;SDS011;61320;52.008;4.530;2023-07-31T10:20:15;2.31;;;2.18;;
73132;SDS011;61320;52.008;4.530;2023-07-31T10:22:42;2.32;;;2.19;;
73132;SDS011;61320;52.008;4.530;2023-07-31T10:25:09;2.68;;;2.54;;
73132;SDS011;61320;52.008;4.530;2023-07-31T10:27:40;2.58;;;2.42;;
73132;SDS011;61320;52.008;4.530;2023-07-31T10:30:14;2.99;;;2.82;;
73132;SDS011;61320;52.008;4.530;2023-07-31T10:32:43;3.12;;;2.93;;
73132;SDS011;61320;52.008;4.530;2023-07-31T10:35:10;3.17;;;2.97;;
73132;SDS011;61320;52.008;4.530;2023-07-31T10:37:38;3.60;;;3.34;;
73132;SDS011;61320;52.008;4.530;2023-07-31T10:45:01;3.97;;;3.49;;
73132;SDS011;61320;52.008;4.530;2023-07-31T10:47:28;3.71;;;3.24;;
73132;SDS011;61320;52.008;4.530;2023-07-31T10:50:10;3.73;;;3.31;;
73132;SDS011;61320;52.008;4.530;2023-07-31T10:52:44;3.94;;;3.46;;
73132;SDS011;61320;52.008;4.530;2023-07-31T10:55:14;4.13;;;3.62;;
73132;SDS011;61320;52.008;4.530;2023-07-31T10:57:44;4.05;;;3.54;;
73132;SDS011;61320;52.008;4.530;2023-07-31T11:03:12;4.16;;;3.53;;
73132;SDS011;61320;52.008;4.530;2023-07-31T11:08:19;4.48;;;3.64;;
73132;SDS011;61320;52.008;4.530;2023-07-31T11:10:47;4.61;;;3.62;;
73132;SDS011;61320;52.008;4.530;2023-07-31T11:13:16;4.06;;;3.31;;
73132;SDS011;61320;52.008;4.530;2023-07-31T11:15:42;3.68;;;3.00;;
73132;SDS011;61320;52.008;4.530;2023-07-31T11:18:07;3.95;;;3.27;;
73132;SDS011;61320;52.008;4.530;2023-07-31T11:20:35;3.74;;;3.10;;
73132;SDS011;61320;52.008;4.530;2023-07-31T11:23:02;3.86;;;3.15;;
73132;SDS011;61320;52.008;4.530;2023-07-31T11:25:33;3.81;;;3.05;;
73132;SDS011;61320;52.008;4.530;2023-07-31T11:28:03;3.66;;;2.94;;
73132;SDS011;61320;52.008;4.530;2023-07-31T11:30:32;3.90;;;3.15;;
73132;SDS011;61320;52.008;4.530;2023-07-31T11:32:59;3.78;;;3.10;;
73132;SDS011;61320;52.008;4.530;2023-07-31T11:35:26;3.83;;;3.18;;
73132;SDS011;61320;52.008;4.530;2023-07-31T11:37:51;3.78;;;3.15;;
73132;SDS011;61320;52.008;4.530;2023-07-31T11:40:17;3.57;;;2.98;;
73132;SDS011;61320;52.008;4.530;2023-07-31T11:42:43;3.45;;;2.92;;
73132;SDS011;61320;52.008;4.530;2023-07-31T11:45:08;3.07;;;2.66;;
73132;SDS011;61320;52.008;4.530;2023-07-31T11:47:37;2.98;;;2.64;;
73132;SDS011;61320;52.008;4.530;2023-07-31T11:50:04;3.49;;;3.03;;
73132;SDS011;61320;52.008;4.530;2023-07-31T11:52:32;3.80;;;3.33;;
73132;SDS011;61320;52.008;4.530;2023-07-31T11:55:02;3.65;;;3.33;;
73132;SDS011;61320;52.008;4.530;2023-07-31T11:57:29;3.49;;;3.21;;
73132;SDS011;61320;52.008;4.530;2023-07-31T11:59:56;3.31;;;3.05;;
73132;SDS011;61320;52.008;4.530;2023-07-31T12:02:22;2.92;;;2.70;;
73132;SDS011;61320;52.008;4.530;2023-07-31T12:04:49;3.02;;;2.84;;
73132;SDS011;61320;52.008;4.530;2023-07-31T12:07:15;2.77;;;2.66;;
73132;SDS011;61320;52.008;4.530;2023-07-31T12:09:53;2.75;;;2.66;;
73132;SDS011;61320;52.008;4.530;2023-07-31T12:12:20;2.71;;;2.58;;
73132;SDS011;61320;52.008;4.530;2023-07-31T12:14:47;2.89;;;2.72;;
73132;SDS011;61320;52.008;4.530;2023-07-31T12:17:12;2.79;;;2.62;;
73132;SDS011;61320;52.008;4.530;2023-07-31T12:19:40;2.54;;;2.42;;
73132;SDS011;61320;52.008;4.530;2023-07-31T12:22:12;3.04;;;2.90;;
73132;SDS011;61320;52.008;4.530;2023-07-31T12:24:43;2.82;;;2.81;;
73132;SDS011;61320;52.008;4.530;2023-07-31T12:27:12;2.56;;;2.56;;
73132;SDS011;61320;52.008;4.530;2023-07-31T12:29:41;2.68;;;2.68;;
73132;SDS011;61320;52.008;4.530;2023-07-31T12:32:22;2.83;;;2.83;;
73132;SDS011;61320;52.008;4.530;2023-07-31T12:34:50;2.57;;;2.57;;
73132;SDS011;61320;52.008;4.530;2023-07-31T12:37:16;3.17;;;3.14;;
73132;SDS011;61320;52.008;4.530;2023-07-31T12:39:42;3.50;;;3.48;;
73132;SDS011;61320;52.008;4.530;2023-07-31T12:42:07;3.30;;;3.20;;
73132;SDS011;61320;52.008;4.530;2023-07-31T12:44:33;3.39;;;3.29;;
73132;SDS011;61320;52.008;4.530;2023-07-31T12:46:58;3.24;;;3.24;;
73132;SDS011;61320;52.008;4.530;2023-07-31T12:49:24;3.00;;;3.00;;
73132;SDS011;61320;52.008;4.530;2023-07-31T12:51:50;2.97;;;2.97;;
73132;SDS011;61320;52.008;4.530;2023-07-31T12:54:15;2.96;;;2.96;;
73132;SDS011;61320;52.008;4.530;2023-07-31T12:56:40;2.65;;;2.65;;
73132;SDS011;61320;52.008;4.530;2023-07-31T12:59:06;2.59;;;2.59;;
73132;SDS011;61320;52.008;4.530;2023-07-31T13:01:32;2.62;;;2.62;;
73132;SDS011;61320;52.008;4.530;2023-07-31T13:03:57;2.29;;;2.29;;
73132;SDS011;61320;52.008;4.530;2023-07-31T13:06:24;2.17;;;2.17;;
73132;SDS011;61320;52.008;4.530;2023-07-31T13:08:50;2.11;;;2.11;;
73132;SDS011;61320;52.008;4.530;2023-07-31T13:11:16;2.02;;;2.02;;
73132;SDS011;61320;52.008;4.530;2023-07-31T13:13:42;2.33;;;2.33;;
73132;SDS011;61320;52.008;4.530;2023-07-31T13:16:07;2.09;;;2.09;;
73132;SDS011;61320;52.008;4.530;2023-07-31T13:18:33;2.10;;;2.10;;
73132;SDS011;61320;52.008;4.530;2023-07-31T13:20:58;1.76;;;1.76;;
73132;SDS011;61320;52.008;4.530;2023-07-31T13:23:23;1.92;;;1.92;;
73132;SDS011;61320;52.008;4.530;2023-07-31T13:25:49;1.74;;;1.74;;
73132;SDS011;61320;52.008;4.530;2023-07-31T13:28:14;1.40;;;1.40;;
73132;SDS011;61320;52.008;4.530;2023-07-31T13:30:40;1.33;;;1.33;;
73132;SDS011;61320;52.008;4.530;2023-07-31T13:33:05;1.39;;;1.39;;
73132;SDS011;61320;52.008;4.530;2023-07-31T13:35:31;1.06;;;1.06;;
73132;SDS011;61320;52.008;4.530;2023-07-31T13:37:56;1.08;;;1.08;;
73132;SDS011;61320;52.008;4.530;2023-07-31T13:40:22;0.98;;;0.98;;
73132;SDS011;61320;52.008;4.530;2023-07-31T13:42:48;1.11;;;1.11;;
73132;SDS011;61320;52.008;4.530;2023-07-31T13:45:13;0.87;;;0.87;;
73132;SDS011;61320;52.008;4.530;2023-07-31T13:47:39;0.92;;;0.92;;
73132;SDS011;61320;52.008;4.530;2023-07-31T13:50:05;1.00;;;1.00;;
73132;SDS011;61320;52.008;4.530;2023-07-31T13:52:30;0.99;;;0.99;;
73132;SDS011;61320;52.008;4.530;2023-07-31T13:54:56;1.03;;;1.03;;
73132;SDS011;61320;52.008;4.530;2023-07-31T13:57:21;1.02;;;1.02;;
73132;SDS011;61320;52.008;4.530;2023-07-31T13:59:48;0.77;;;0.77;;
73132;SDS011;61320;52.008;4.530;2023-07-31T14:02:13;0.89;;;0.89;;
73132;SDS011;61320;52.008;4.530;2023-07-31T14:04:40;0.85;;;0.85;;
73132;SDS011;61320;52.008;4.530;2023-07-31T14:07:05;0.79;;;0.79;;
73132;SDS011;61320;52.008;4.530;2023-07-31T14:09:31;0.84;;;0.84;;
73132;SDS011;61320;52.008;4.530;2023-07-31T14:11:57;0.90;;;0.90;;
73132;SDS011;61320;52.008;4.530;2023-07-31T14:14:22;0.69;;;0.69;;
73132;SDS011;61320;52.008;4.530;2023-07-31T14:16:48;0.64;;;0.64;;
73132;SDS011;61320;52.008;4.530;2023-07-31T14:19:13;0.59;;;0.59;;
73132;SDS011;61320;52.008;4.530;2023-07-31T14:21:39;0.88;;;0.88;;
73132;SDS011;61320;52.008;4.530;2023-07-31T14:24:04;0.79;;;0.79;;
73132;SDS011;61320;52.008;4.530;2023-07-31T14:26:30;0.73;;;0.73;;
73132;SDS011;61320;52.008;4.530;2023-07-31T14:28:55;0.76;;;0.76;;
73132;SDS011;61320;52.008;4.530;2023-07-31T14:31:21;0.79;;;0.79;;
73132;SDS011;61320;52.008;4.530;2023-07-31T14:33:46;0.79;;;0.79;;
73132;SDS011;61320;52.008;4.530;2023-07-31T14:36:12;0.75;;;0.75;;
73132;SDS011;61320;52.008;4.530;2023-07-31T14:38:37;0.69;;;0.69;;
73132;SDS011;61320;52.008;4.530;2023-07-31T14:41:02;0.70;;;0.70;;
73132;SDS011;61320;52.008;4.530;2023-07-31T14:43:28;0.74;;;0.74;;
73132;SDS011;61320;52.008;4.530;2023-07-31T14:45:53;0.78;;;0.78;;
73132;SDS011;61320;52.008;4.530;2023-07-31T14:48:23;0.67;;;0.67;;
73132;SDS011;61320;52.008;4.530;2023-07-31T14:50:48;0.63;;;0.63;;
73132;SDS011;61320;52.008;4.530;2023-07-31T14:53:14;0.74;;;0.74;;